Time;durP1;ratioP1;P1;durP2;ratioP2;P2;SDS_P1;SDS_P2;PMS_P1;PMS_P2;Temp;Humidity;BMP_temperature;BMP_pressure;BME280_temperature;BME280_humidity;BME280_pressure;Samples;Min_cycle;Max_cycle;Signal;HPM_P1;HPM_P2
2022/05/15 00:00:37;;;;;;;28.02;7.25;;;12.30;99.90;;;;;;5035477;28;20260;-74
2022/05/15 00:00:38;;;;;;;29.52;7.85;;;12.30;99.90;;;;;;5039940;28;20037;-73
2022/05/15 00:03:16;;;;;;;25.23;7.35;;;12.30;99.90;;;;;;5040414;28;20021;-74
2022/05/15 00:05:44;;;;;;;29.30;8.02;;;12.20;99.90;;;;;;5042150;28;20025;-74
2022/05/15 00:08:10;;;;;;;30.92;7.22;;;12.20;99.90;;;;;;5024677;28;20017;-73
2022/05/15 00:10:37;;;;;;;31.55;7.72;;;12.20;99.90;;;;;;5025774;28;20076;-73
2022/05/15 00:13:05;;;;;;;38.72;8.90;;;12.10;99.90;;;;;;5043561;28;20044;-75
2022/05/15 00:15:32;;;;;;;34.97;7.63;;;12.20;99.90;;;;;;5046749;28;20026;-74
2022/05/15 00:17:58;;;;;;;32.63;8.07;;;12.10;99.90;;;;;;5047528;28;20053;-75
2022/05/15 00:20:24;;;;;;;31.50;8.25;;;12.00;99.90;;;;;;5019347;28;20029;-74
2022/05/15 00:22:50;;;;;;;28.10;7.28;;;12.00;99.90;;;;;;5022235;28;20075;-74
2022/05/15 00:25:15;;;;;;;32.20;8.32;;;12.00;99.90;;;;;;5038956;28;20029;-74
2022/05/15 00:27:41;;;;;;;27.10;7.82;;;12.00;99.90;;;;;;5039985;28;20018;-74
2022/05/15 00:30:07;;;;;;;29.77;7.35;;;12.00;99.90;;;;;;5015643;28;20093;-73
2022/05/15 00:32:34;;;;;;;29.17;7.38;;;11.90;99.90;;;;;;5041121;28;20025;-74
2022/05/15 00:34:59;;;;;;;35.97;7.68;;;11.90;99.90;;;;;;5017234;28;20022;-74
2022/05/15 00:37:25;;;;;;;32.30;7.88;;;11.80;99.90;;;;;;5015826;28;20106;-74
2022/05/15 00:39:50;;;;;;;27.15;8.38;;;11.90;99.90;;;;;;5022138;28;20383;-74
2022/05/15 00:42:16;;;;;;;27.42;8.32;;;11.80;99.90;;;;;;5040361;28;20024;-73
2022/05/15 00:44:41;;;;;;;37.67;7.45;;;11.80;99.90;;;;;;5040833;28;20079;-73
2022/05/15 00:47:07;;;;;;;28.80;8.05;;;11.80;99.90;;;;;;5040772;28;20386;-73
2022/05/15 00:49:36;;;;;;;25.65;8.13;;;11.80;99.90;;;;;;5040513;28;20056;-72
2022/05/15 00:52:10;;;;;;;25.63;8.52;;;11.80;99.90;;;;;;5022132;28;20026;-73
2022/05/15 00:54:47;;;;;;;31.88;8.23;;;11.80;99.90;;;;;;5040711;28;20072;-73
2022/05/15 00:57:18;;;;;;;31.35;8.05;;;11.90;99.90;;;;;;5038487;28;20112;-74
2022/05/15 00:59:56;;;;;;;35.92;9.20;;;11.90;99.90;;;;;;5040834;28;20040;-73
2022/05/15 01:02:23;;;;;;;27.17;7.32;;;11.80;99.90;;;;;;5040693;28;20025;-73
2022/05/15 01:04:51;;;;;;;33.42;8.77;;;11.80;99.90;;;;;;5039169;28;20071;-74
2022/05/15 01:07:17;;;;;;;33.38;8.00;;;11.80;99.90;;;;;;5020826;28;20018;-74
2022/05/15 01:09:43;;;;;;;32.58;8.77;;;11.70;99.90;;;;;;5020148;28;20079;-73
2022/05/15 01:12:10;;;;;;;24.63;7.50;;;11.70;99.90;;;;;;5021237;28;20026;-73
2022/05/15 01:14:38;;;;;;;24.48;7.72;;;11.80;99.90;;;;;;5020773;28;20037;-72
2022/05/15 01:17:05;;;;;;;35.88;9.43;;;11.80;99.90;;;;;;5039657;28;20026;-73
2022/05/15 01:19:33;;;;;;;35.33;8.18;;;11.70;99.90;;;;;;5039631;28;20034;-73
2022/05/15 01:22:00;;;;;;;26.38;8.40;;;11.60;99.90;;;;;;5022082;28;20025;-73
2022/05/15 01:24:26;;;;;;;32.95;9.27;;;11.60;99.90;;;;;;5039562;28;20106;-73
2022/05/15 01:26:52;;;;;;;24.92;8.23;;;11.60;99.90;;;;;;5039416;28;20490;-73
2022/05/15 01:29:26;;;;;;;35.05;8.73;;;11.50;99.90;;;;;;5039975;28;20026;-73
2022/05/15 01:31:52;;;;;;;27.52;7.57;;;11.50;99.90;;;;;;5039440;28;20435;-74
2022/05/15 01:34:18;;;;;;;28.95;7.97;;;11.50;99.90;;;;;;5020567;28;20028;-74
2022/05/15 01:36:43;;;;;;;30.58;7.55;;;11.50;99.90;;;;;;5039542;28;20113;-73
2022/05/15 01:39:09;;;;;;;33.78;8.93;;;11.50;99.90;;;;;;5039578;28;20026;-73
2022/05/15 01:41:35;;;;;;;29.83;9.15;;;11.50;99.90;;;;;;5039687;28;20045;-73
2022/05/15 01:44:00;;;;;;;32.15;7.90;;;11.50;99.90;;;;;;5040443;28;20022;-73
2022/05/15 01:46:28;;;;;;;26.05;8.85;;;11.50;99.90;;;;;;5039624;28;20065;-73
2022/05/15 01:48:54;;;;;;;25.20;8.40;;;11.40;99.90;;;;;;5038133;28;20045;-73
2022/05/15 01:51:21;;;;;;;27.27;8.23;;;11.50;99.90;;;;;;5020310;28;20029;-73
2022/05/15 01:53:47;;;;;;;26.45;8.75;;;11.40;99.90;;;;;;5038387;28;20068;-73
2022/05/15 01:56:13;;;;;;;32.63;9.48;;;11.40;99.90;;;;;;5021359;28;20474;-74
2022/05/15 01:58:39;;;;;;;27.83;8.52;;;11.30;99.90;;;;;;5038789;28;20059;-73
2022/05/15 02:01:05;;;;;;;28.33;8.25;;;11.20;99.90;;;;;;5038735;28;20036;-73
2022/05/15 02:03:31;;;;;;;28.08;8.38;;;11.20;99.90;;;;;;5021950;28;20033;-73
2022/05/15 02:05:57;;;;;;;30.75;8.45;;;11.20;99.90;;;;;;5020845;28;20022;-73
2022/05/15 02:08:23;;;;;;;31.45;8.15;;;11.10;99.90;;;;;;5039141;28;20483;-73
2022/05/15 02:10:49;;;;;;;29.20;9.13;;;11.10;99.90;;;;;;5038545;28;20332;-74
2022/05/15 02:13:15;;;;;;;30.95;8.60;;;11.00;99.90;;;;;;5037884;28;20033;-74
2022/05/15 02:15:41;;;;;;;28.63;8.60;;;11.00;99.90;;;;;;5020585;28;20338;-73
2022/05/15 02:18:07;;;;;;;34.72;8.55;;;11.00;99.90;;;;;;5043640;28;20029;-73
2022/05/15 02:20:33;;;;;;;35.95;8.20;;;10.90;99.90;;;;;;5036866;28;20100;-74
2022/05/15 02:22:59;;;;;;;36.55;9.15;;;10.80;99.90;;;;;;5034997;28;20029;-73
2022/05/15 02:25:27;;;;;;;29.23;9.38;;;10.80;99.90;;;;;;5036831;28;20036;-74
2022/05/15 02:27:53;;;;;;;30.23;9.35;;;10.80;99.90;;;;;;5018299;28;20022;-73
2022/05/15 02:30:18;;;;;;;30.23;9.38;;;10.80;99.90;;;;;;5036507;28;20044;-73
2022/05/15 02:32:44;;;;;;;28.00;9.38;;;10.80;99.90;;;;;;5018114;28;20064;-73
2022/05/15 02:35:10;;;;;;;26.08;8.98;;;10.70;99.90;;;;;;5036071;28;20493;-73
2022/05/15 02:37:36;;;;;;;32.15;9.45;;;10.70;99.90;;;;;;5035912;28;20025;-73
2022/05/15 02:40:05;;;;;;;32.65;8.88;;;10.70;99.90;;;;;;5036210;28;20017;-74
2022/05/15 02:42:31;;;;;;;28.98;9.35;;;10.70;99.90;;;;;;5035732;28;20327;-74
2022/05/15 02:44:57;;;;;;;26.85;10.05;;;10.60;99.90;;;;;;5017293;28;20064;-73
2022/05/15 02:47:22;;;;;;;38.47;9.30;;;10.60;99.90;;;;;;5035522;28;20021;-74
2022/05/15 02:52:32;;;;;;;33.85;11.25;;;10.60;99.90;;;;;;5035902;28;20072;-74
2022/05/15 02:54:58;;;;;;;33.00;10.65;;;10.60;99.90;;;;;;5017455;28;20025;-74
2022/05/15 02:57:23;;;;;;;31.40;10.80;;;10.60;99.90;;;;;;5034923;28;20022;-73
2022/05/15 02:59:49;;;;;;;42.47;10.60;;;10.60;99.90;;;;;;5035584;28;20029;-74
2022/05/15 03:02:14;;;;;;;39.53;11.05;;;10.60;99.90;;;;;;5035390;28;20025;-73
2022/05/15 03:04:40;;;;;;;31.60;10.60;;;10.60;99.90;;;;;;5035963;28;20483;-74
2022/05/15 03:07:06;;;;;;;31.83;10.65;;;10.60;99.90;;;;;;5017580;28;20483;-75
2022/05/15 03:09:32;;;;;;;39.15;11.80;;;10.60;99.90;;;;;;5035488;28;20132;-74
2022/05/15 03:11:58;;;;;;;32.33;10.77;;;10.50;99.90;;;;;;5017488;28;20075;-74
2022/05/15 03:14:23;;;;;;;36.95;13.45;;;10.50;99.90;;;;;;5035353;28;20018;-73
2022/05/15 03:16:49;;;;;;;39.33;12.27;;;10.40;99.90;;;;;;5017774;28;20021;-74
2022/05/15 03:19:14;;;;;;;32.53;11.27;;;10.40;99.90;;;;;;5036693;28;20033;-73
2022/05/15 03:21:40;;;;;;;42.70;11.38;;;10.40;99.90;;;;;;5018288;28;20102;-74
2022/05/15 03:24:08;;;;;;;35.22;11.05;;;10.40;99.90;;;;;;5036037;28;20488;-74
2022/05/15 03:26:39;;;;;;;32.22;10.63;;;10.40;99.90;;;;;;5036534;28;20486;-74
2022/05/15 03:29:07;;;;;;;30.63;11.43;;;10.40;99.90;;;;;;5017652;28;20025;-74
2022/05/15 03:31:36;;;;;;;29.33;10.45;;;10.40;99.90;;;;;;5035757;28;20032;-73
2022/05/15 03:34:06;;;;;;;29.83;9.70;;;10.30;99.90;;;;;;5036322;28;20483;-74
2022/05/15 03:36:32;;;;;;;35.33;10.10;;;10.30;99.90;;;;;;5042361;28;20072;-74
2022/05/15 03:38:58;;;;;;;33.22;10.40;;;10.30;99.90;;;;;;5042024;28;20268;-73
2022/05/15 03:41:24;;;;;;;38.47;10.93;;;10.30;99.90;;;;;;5042788;28;20096;-74
2022/05/15 03:43:49;;;;;;;35.25;10.60;;;10.30;99.90;;;;;;5024378;28;20025;-75
2022/05/15 03:46:15;;;;;;;37.55;9.50;;;10.30;99.90;;;;;;5042475;28;20022;-74
2022/05/15 03:48:40;;;;;;;28.45;11.50;;;10.30;99.90;;;;;;5024646;28;20478;-75
2022/05/15 03:51:07;;;;;;;33.63;10.80;;;10.40;99.90;;;;;;5024797;28;20387;-75
2022/05/15 03:53:33;;;;;;;29.70;10.77;;;10.40;99.90;;;;;;5043260;28;20084;-74
2022/05/15 03:55:59;;;;;;;32.78;11.27;;;10.50;99.90;;;;;;5026322;28;20568;-74
2022/05/15 03:58:26;;;;;;;39.30;11.13;;;10.50;99.90;;;;;;5045959;28;20032;-74
2022/05/15 04:00:52;;;;;;;29.40;10.15;;;10.50;99.90;;;;;;5029056;28;20096;-74
2022/05/15 04:03:18;;;;;;;31.77;11.00;;;10.40;99.90;;;;;;5048181;28;20053;-75
2022/05/15 04:05:44;;;;;;;29.95;11.10;;;10.40;99.90;;;;;;5032503;28;20021;-74
2022/05/15 04:08:10;;;;;;;35.45;11.93;;;10.40;99.90;;;;;;5050923;28;20102;-74
2022/05/15 04:10:36;;;;;;;28.98;10.68;;;10.40;99.90;;;;;;5050391;28;20026;-74
2022/05/15 04:13:03;;;;;;;37.97;12.27;;;10.50;99.90;;;;;;5048450;28;20044;-74
2022/05/15 04:15:29;;;;;;;34.58;11.77;;;10.50;99.90;;;;;;5049990;28;20079;-74
2022/05/15 04:17:54;;;;;;;37.15;11.75;;;10.50;99.90;;;;;;5049980;28;20021;-74
2022/05/15 04:20:24;;;;;;;39.72;11.77;;;10.50;99.90;;;;;;5045346;28;20544;-73
2022/05/15 04:22:50;;;;;;;35.22;11.75;;;10.40;99.90;;;;;;5028093;28;20105;-74
2022/05/15 04:25:17;;;;;;;31.88;13.13;;;10.40;99.90;;;;;;5042658;28;20036;-74
2022/05/15 04:27:43;;;;;;;37.90;12.15;;;10.40;99.90;;;;;;5042187;28;20022;-74
2022/05/15 04:30:12;;;;;;;37.35;12.18;;;10.50;99.90;;;;;;5024208;28;20033;-74
2022/05/15 04:32:37;;;;;;;34.95;11.13;;;10.50;99.90;;;;;;5041137;28;20441;-74
2022/05/15 04:35:04;;;;;;;31.17;11.32;;;10.60;99.90;;;;;;5041352;28;20029;-74
2022/05/15 04:37:29;;;;;;;40.08;11.38;;;10.70;99.90;;;;;;5041284;28;20053;-74
2022/05/15 04:39:55;;;;;;;36.53;11.23;;;10.60;99.90;;;;;;5041583;28;20499;-74
2022/05/15 04:42:21;;;;;;;37.88;12.75;;;10.70;99.90;;;;;;5041346;28;20392;-74
2022/05/15 04:44:46;;;;;;;42.72;12.27;;;10.70;99.90;;;;;;5024090;28;20506;-74
2022/05/15 04:47:13;;;;;;;29.98;12.05;;;10.70;99.90;;;;;;5048293;28;20022;-73
2022/05/15 04:49:38;;;;;;;31.73;12.38;;;10.70;99.90;;;;;;5034710;28;20034;-74
2022/05/15 04:52:04;;;;;;;32.75;12.65;;;10.70;99.90;;;;;;5032145;28;20036;-73
2022/05/15 04:54:30;;;;;;;35.72;14.02;;;10.80;99.90;;;;;;5037411;28;20026;-74
2022/05/15 04:56:56;;;;;;;31.00;11.65;;;10.80;99.90;;;;;;5037931;28;20022;-74
2022/05/15 04:59:22;;;;;;;35.45;11.85;;;10.80;99.90;;;;;;5019582;28;20084;-74
2022/05/15 05:01:47;;;;;;;34.65;13.05;;;10.80;99.90;;;;;;5020248;28;20017;-73
2022/05/15 05:04:13;;;;;;;34.30;11.70;;;10.90;99.90;;;;;;5037195;28;20034;-73
2022/05/15 05:06:38;;;;;;;43.83;12.63;;;10.90;99.90;;;;;;5037012;28;20030;-74
2022/05/15 05:09:04;;;;;;;38.42;11.98;;;10.90;99.90;;;;;;5037430;28;20014;-73
2022/05/15 05:11:29;;;;;;;33.08;11.68;;;11.00;99.90;;;;;;5037935;28;20018;-74
2022/05/15 05:13:55;;;;;;;34.17;12.52;;;11.00;99.90;;;;;;5037096;28;20061;-74
2022/05/15 05:16:21;;;;;;;37.65;12.32;;;11.10;99.90;;;;;;5037168;28;20041;-74
2022/05/15 05:18:48;;;;;;;35.83;13.13;;;11.20;99.90;;;;;;5037247;28;20044;-74
2022/05/15 05:21:13;;;;;;;35.13;12.02;;;11.30;99.90;;;;;;5037614;28;20101;-73
2022/05/15 05:23:39;;;;;;;40.90;12.43;;;11.30;99.90;;;;;;5019503;28;20534;-71
2022/05/15 05:26:04;;;;;;;38.38;11.45;;;11.40;99.90;;;;;;5037580;28;20056;-72
2022/05/15 05:28:30;;;;;;;34.30;11.35;;;11.50;99.90;;;;;;5037114;28;20034;-72
2022/05/15 05:30:56;;;;;;;35.25;12.57;;;11.60;99.90;;;;;;5018804;28;20051;-72
2022/05/15 05:33:22;;;;;;;37.60;11.45;;;11.80;99.90;;;;;;5036898;28;20025;-72
2022/05/15 05:35:49;;;;;;;41.88;11.18;;;11.80;99.90;;;;;;5036507;28;20087;-72
2022/05/15 05:38:15;;;;;;;42.65;12.43;;;11.90;99.90;;;;;;5037751;28;20025;-72
2022/05/15 05:40:41;;;;;;;37.15;11.23;;;11.90;99.90;;;;;;5037199;28;20038;-71
2022/05/15 05:43:08;;;;;;;30.83;11.15;;;12.00;99.90;;;;;;5036276;28;20491;-72
2022/05/15 05:45:34;;;;;;;27.85;11.32;;;12.00;99.90;;;;;;5018604;28;20021;-73
2022/05/15 05:48:00;;;;;;;38.72;11.23;;;12.10;99.90;;;;;;5018211;28;20022;-73
2022/05/15 05:50:27;;;;;;;34.40;10.48;;;12.10;99.90;;;;;;5036286;28;20040;-72
2022/05/15 05:52:54;;;;;;;33.25;11.10;;;12.10;99.90;;;;;;5036660;28;20394;-72
2022/05/15 05:55:21;;;;;;;28.00;11.13;;;12.10;99.90;;;;;;5036916;28;20025;-72
2022/05/15 05:57:47;;;;;;;32.22;11.35;;;12.20;99.90;;;;;;5036205;28;20059;-72
2022/05/15 06:00:20;;;;;;;32.35;11.88;;;12.30;99.90;;;;;;5019572;28;20025;-72
2022/05/15 06:02:46;;;;;;;34.08;11.57;;;12.40;99.90;;;;;;5037186;28;20021;-72
2022/05/15 06:05:12;;;;;;;36.53;11.80;;;12.50;99.90;;;;;;5072508;22;20048;-53
2022/05/15 06:07:38;;;;;;;35.00;11.18;;;12.50;99.90;;;;;;5016230;28;20032;-51
2022/05/15 06:10:07;;;;;;;31.33;10.77;;;12.60;99.90;;;;;;5034887;28;20033;-53
2022/05/15 06:12:33;;;;;;;30.10;9.48;;;12.60;99.90;;;;;;5035487;28;20048;-53
2022/05/15 06:14:58;;;;;;;33.95;11.02;;;12.70;99.90;;;;;;5034121;28;20470;-53
2022/05/15 06:17:28;;;;;;;24.73;10.18;;;12.80;99.90;;;;;;5033793;28;20104;-53
2022/05/15 06:19:55;;;;;;;26.45;9.32;;;12.80;99.90;;;;;;5033889;28;20033;-50
2022/05/15 06:22:21;;;;;;;28.48;10.05;;;12.90;99.90;;;;;;5034041;28;20018;-50
2022/05/15 06:24:46;;;;;;;28.42;9.73;;;13.00;99.90;;;;;;5033849;28;20052;-49
2022/05/15 06:27:12;;;;;;;30.70;10.07;;;13.10;99.90;;;;;;5033410;28;20120;-53
2022/05/15 06:29:39;;;;;;;29.33;9.50;;;13.20;99.90;;;;;;5033533;28;20108;-49
2022/05/15 06:32:06;;;;;;;33.97;9.93;;;13.20;99.90;;;;;;5033522;28;20075;-54
2022/05/15 06:34:31;;;;;;;26.02;9.75;;;13.30;99.90;;;;;;5033225;28;20505;-50
2022/05/15 06:36:57;;;;;;;31.95;10.05;;;13.30;99.90;;;;;;5033458;28;20036;-50
2022/05/15 06:39:22;;;;;;;23.13;8.52;;;13.50;99.90;;;;;;5033124;28;20100;-56
2022/05/15 06:41:50;;;;;;;24.23;7.97;;;13.60;99.90;;;;;;5032906;28;20029;-50
2022/05/15 06:44:19;;;;;;;26.60;8.13;;;13.70;99.90;;;;;;5033627;28;20025;-49
2022/05/15 06:46:48;;;;;;;23.27;7.68;;;13.80;99.90;;;;;;5015105;28;20028;-51
2022/05/15 06:49:14;;;;;;;24.35;7.55;;;14.00;99.90;;;;;;5032979;28;20095;-52
2022/05/15 06:51:40;;;;;;;21.85;7.50;;;14.10;99.90;;;;;;5032978;28;20025;-52
2022/05/15 06:54:05;;;;;;;25.40;7.85;;;14.20;99.90;;;;;;5032858;28;20057;-53
2022/05/15 06:59:15;;;;;;;25.88;8.70;;;14.40;99.90;;;;;;5032843;28;20080;-52
2022/05/15 07:01:40;;;;;;;20.58;7.40;;;14.50;99.90;;;;;;5032857;28;20033;-52
2022/05/15 07:04:06;;;;;;;26.08;7.78;;;14.60;99.90;;;;;;5033008;28;20025;-52
2022/05/15 07:06:32;;;;;;;20.38;7.22;;;14.70;99.90;;;;;;5032970;28;20398;-54
2022/05/15 07:08:57;;;;;;;25.67;7.78;;;14.80;99.90;;;;;;5032359;28;20021;-51
2022/05/15 07:11:23;;;;;;;24.80;7.80;;;14.90;99.90;;;;;;5032856;28;20379;-51
2022/05/15 07:13:49;;;;;;;25.08;8.32;;;15.00;99.90;;;;;;5032455;28;20025;-52
2022/05/15 07:16:14;;;;;;;24.40;7.60;;;15.00;99.90;;;;;;5032723;28;20022;-51
2022/05/15 07:18:41;;;;;;;25.65;7.47;;;15.00;99.90;;;;;;5014597;28;20025;-51
2022/05/15 07:21:07;;;;;;;23.38;7.57;;;15.00;99.90;;;;;;5032690;28;20025;-51
2022/05/15 07:23:33;;;;;;;20.15;6.88;;;15.10;99.90;;;;;;5032671;28;20470;-51
2022/05/15 07:25:59;;;;;;;18.73;6.57;;;15.20;99.90;;;;;;5032862;28;20022;-54
2022/05/15 07:28:24;;;;;;;16.35;6.78;;;15.30;99.90;;;;;;5032546;28;20025;-50
2022/05/15 07:30:50;;;;;;;24.05;7.28;;;15.40;99.90;;;;;;5014545;28;20032;-54
2022/05/15 07:33:25;;;;;;;20.95;6.53;;;15.50;99.90;;;;;;5032609;28;20378;-51
2022/05/15 07:35:51;;;;;;;19.50;6.00;;;15.60;99.90;;;;;;5032717;28;20029;-51
2022/05/15 07:38:16;;;;;;;22.25;5.97;;;15.70;99.90;;;;;;5032559;28;20104;-54
2022/05/15 07:40:43;;;;;;;17.73;6.35;;;15.80;99.90;;;;;;5032511;28;20108;-55
2022/05/15 07:43:11;;;;;;;18.50;5.57;;;15.80;99.90;;;;;;5032400;28;20060;-53
2022/05/15 07:45:37;;;;;;;19.58;7.03;;;15.80;99.90;;;;;;5032296;28;20391;-55
2022/05/15 07:48:03;;;;;;;19.98;5.85;;;15.90;99.90;;;;;;5032424;28;20033;-53
2022/05/15 07:50:29;;;;;;;16.55;5.90;;;16.00;99.90;;;;;;5031986;28;20033;-51
2022/05/15 07:52:54;;;;;;;17.42;5.53;;;16.00;99.90;;;;;;5031842;28;20036;-53
2022/05/15 07:55:20;;;;;;;24.40;7.05;;;16.10;99.90;;;;;;5031691;28;20389;-50
2022/05/15 07:57:46;;;;;;;17.92;5.63;;;16.20;99.90;;;;;;5031780;28;20383;-54
2022/05/15 08:00:16;;;;;;;18.70;6.30;;;16.30;99.90;;;;;;5031752;28;20033;-50
2022/05/15 08:02:42;;;;;;;16.65;5.97;;;16.50;99.90;;;;;;5031968;28;20026;-50
2022/05/15 08:08:05;;;;;;;14.68;5.18;;;16.80;99.90;;;;;;5032169;28;20029;-51
2022/05/15 08:10:35;;;;;;;12.88;5.22;;;17.00;99.90;;;;;;5032162;28;20086;-53
2022/05/15 08:13:02;;;;;;;19.27;5.55;;;17.00;99.90;;;;;;5031771;28;20535;-54
2022/05/15 08:15:28;;;;;;;20.90;5.90;;;17.10;99.90;;;;;;5032380;28;20128;-54
2022/05/15 08:17:54;;;;;;;19.45;5.25;;;17.20;99.90;;;;;;5031863;28;20107;-55
2022/05/15 08:25:49;;;;;;;11.30;4.13;;;17.50;99.90;;;;;;5035991;28;20029;-52
2022/05/15 08:28:15;;;;;;;9.68;3.30;;;17.60;99.90;;;;;;5035826;28;20387;-52
2022/05/15 08:30:40;;;;;;;19.17;4.75;;;17.70;99.90;;;;;;5035775;28;20030;-50
2022/05/15 08:33:09;;;;;;;11.13;3.90;;;17.80;99.90;;;;;;5035319;28;20034;-52
2022/05/15 08:35:35;;;;;;;15.45;5.38;;;17.90;99.90;;;;;;5035662;28;20026;-49
2022/05/15 08:38:00;;;;;;;17.48;3.95;;;18.00;99.90;;;;;;5035474;28;20028;-51
2022/05/15 08:40:49;;;;;;;10.05;4.35;;;18.00;99.90;;;;;;5035345;28;20057;-54
2022/05/15 08:43:18;;;;;;;11.10;3.67;;;18.00;99.90;;;;;;5035576;28;20048;-49
2022/05/15 08:46:02;;;;;;;14.63;3.85;;;18.10;99.90;;;;;;5035462;28;20017;-48
2022/05/15 08:48:29;;;;;;;11.68;3.65;;;18.10;99.90;;;;;;5017450;28;20490;-53
2022/05/15 08:50:56;;;;;;;13.02;3.75;;;18.30;99.90;;;;;;5034851;28;20029;-49
2022/05/15 08:53:28;;;;;;;8.68;3.20;;;18.30;99.90;;;;;;5034914;28;20018;-49
2022/05/15 08:55:57;;;;;;;11.98;3.45;;;18.40;99.90;;;;;;5035473;28;20386;-50
2022/05/15 08:58:37;;;;;;;14.32;2.85;;;18.40;99.90;;;;;;5035314;28;20029;-51
2022/05/15 09:01:09;;;;;;;7.72;3.08;;;18.40;99.90;;;;;;5035065;28;20021;-48
2022/05/15 09:03:38;;;;;;;11.43;2.97;;;18.50;99.90;;;;;;5034710;28;20033;-49
2022/05/15 09:06:48;;;;;;;9.40;3.03;;;18.50;99.90;;;;;;5028486;28;20064;-51
2022/05/15 09:09:32;;;;;;;10.75;2.70;;;18.60;99.90;;;;;;4989834;28;20026;-50
2022/05/15 09:12:18;;;;;;;10.77;2.65;;;18.70;99.90;;;;;;5034109;28;20033;-49
2022/05/15 09:15:00;;;;;;;10.85;2.92;;;18.80;99.90;;;;;;5033898;28;20084;-49
2022/05/15 09:17:42;;;;;;;9.35;2.83;;;18.90;99.90;;;;;;5016896;28;20426;-50
2022/05/15 09:20:14;;;;;;;9.27;2.53;;;18.90;99.90;;;;;;5034903;28;20156;-51
2022/05/15 09:22:45;;;;;;;14.32;3.60;;;18.90;99.90;;;;;;5034699;28;20025;-52
2022/05/15 09:25:23;;;;;;;5.88;2.50;;;18.90;99.90;;;;;;5034484;28;20080;-49
2022/05/15 09:28:03;;;;;;;7.43;2.17;;;19.00;99.90;;;;;;5034510;28;20029;-49
2022/05/15 09:30:42;;;;;;;7.00;2.72;;;19.00;99.90;;;;;;5034655;28;20029;-50
2022/05/15 09:33:26;;;;;;;9.70;2.28;;;19.20;99.90;;;;;;5034100;28;20029;-53
2022/05/15 09:36:12;;;;;;;7.20;2.83;;;19.40;99.90;;;;;;5034182;28;20056;-52
2022/05/15 09:38:38;;;;;;;7.93;2.30;;;19.40;99.90;;;;;;5034050;28;20116;-52
2022/05/15 09:44:34;;;;;;;6.55;2.72;;;19.70;99.90;;;;;;4953493;29;20019;-53
2022/05/15 09:47:20;;;;;;;;;;;19.70;99.90;;;;;;5020411;28;20398;-51
2022/05/15 09:49:46;;;;;;;7.90;3.47;;;19.70;99.90;;;;;;5033661;28;19927;-50
2022/05/15 09:52:28;;;;;;;13.90;3.38;;;19.70;99.90;;;;;;5026725;28;20044;-53
2022/05/15 09:55:11;;;;;;;7.97;2.80;;;19.80;99.90;;;;;;5033285;28;20025;-49
2022/05/15 09:57:37;;;;;;;8.65;3.20;;;19.90;99.90;;;;;;5033134;28;20048;-49
2022/05/15 10:00:08;;;;;;;5.90;2.75;;;20.00;99.90;;;;;;5026360;28;20042;-50
2022/05/15 10:02:39;;;;;;;7.75;2.50;;;20.00;99.90;;;;;;5020752;28;20026;-51
2022/05/15 10:05:22;;;;;;;10.47;2.93;;;20.10;99.90;;;;;;5013589;28;20029;-52
2022/05/15 10:08:19;;;;;;;7.32;2.97;;;20.30;99.90;;;;;;5013506;28;20029;-51
2022/05/15 10:11:04;;;;;;;13.60;3.08;;;20.20;99.90;;;;;;5013119;28;20029;-52
2022/05/15 10:13:43;;;;;;;5.30;2.38;;;20.30;99.90;;;;;;5013636;28;20348;-51
2022/05/15 10:16:24;;;;;;;9.75;2.97;;;20.30;99.70;;;;;;5013597;28;20396;-50
2022/05/15 10:19:18;;;;;;;5.13;2.75;;;20.30;99.90;;;;;;5013943;28;20033;-51
2022/05/15 10:21:49;;;;;;;6.80;2.70;;;20.40;99.90;;;;;;5014782;28;20044;-53
2022/05/15 10:24:38;;;;;;;8.25;2.75;;;20.40;99.90;;;;;;5032818;28;20022;-52
2022/05/15 10:27:23;;;;;;;10.52;2.55;;;20.40;99.90;;;;;;5033046;28;20034;-52
2022/05/15 10:30:13;;;;;;;7.25;2.40;;;20.50;99.90;;;;;;5032921;28;20094;-50
2022/05/15 10:32:44;;;;;;;11.98;2.75;;;20.50;99.90;;;;;;5032496;28;20041;-49
2022/05/15 10:35:13;;;;;;;9.32;2.55;;;20.40;99.90;;;;;;5032686;28;20053;-49
2022/05/15 10:38:03;;;;;;;6.38;2.65;;;20.50;99.20;;;;;;5031866;28;20083;-49
2022/05/15 10:40:53;;;;;;;14.40;3.90;;;20.50;99.20;;;;;;5032315;28;20037;-49
2022/05/15 10:43:25;;;;;;;9.60;2.90;;;20.70;99.70;;;;;;5032536;28;20061;-52
2022/05/15 10:46:01;;;;;;;6.47;2.60;;;20.80;99.20;;;;;;5031760;28;20395;-53
2022/05/15 10:48:45;;;;;;;11.77;3.60;;;20.80;99.20;;;;;;5032088;28;20534;-52
2022/05/15 10:51:25;;;;;;;8.57;2.60;;;20.80;99.40;;;;;;5032015;28;20040;-51
2022/05/15 10:59:42;;;;;;;9.77;2.45;;;21.10;98.60;;;;;;5024824;28;20128;-53
2022/05/15 11:02:44;;;;;;;6.20;2.88;;;21.10;97.20;;;;;;5032062;28;20021;-54
2022/05/15 11:05:28;;;;;;;9.38;2.45;;;21.10;97.00;;;;;;5032117;28;20033;-55
2022/05/15 11:08:36;;;;;;;10.43;2.85;;;21.20;97.50;;;;;;5031782;28;20022;-52
2022/05/15 11:11:20;;;;;;;9.88;3.65;;;21.20;98.20;;;;;;5025807;28;20033;-54
2022/05/15 11:14:05;;;;;;;11.38;2.83;;;21.40;97.40;;;;;;5015002;28;20040;-53
2022/05/15 11:16:54;;;;;;;6.15;2.63;;;21.50;96.90;;;;;;5025850;28;20415;-56
2022/05/15 11:19:36;;;;;;;9.15;3.13;;;21.50;96.20;;;;;;5003625;28;20052;-51
2022/05/15 11:22:21;;;;;;;8.23;2.72;;;21.60;95.30;;;;;;5015690;28;20393;-53
2022/05/15 11:24:57;;;;;;;9.40;3.08;;;21.50;94.80;;;;;;5012508;28;20554;-56
2022/05/15 11:27:44;;;;;;;8.48;2.40;;;21.50;94.40;;;;;;5023138;28;20034;-55
2022/05/15 11:30:20;;;;;;;9.15;2.72;;;21.30;95.00;;;;;;5012580;28;20384;-54
2022/05/15 11:32:45;;;;;;;5.75;2.28;;;21.30;95.40;;;;;;5012499;28;20052;-53
2022/05/15 11:35:17;;;;;;;7.18;2.40;;;21.40;95.60;;;;;;5012276;28;20479;-53
2022/05/15 11:38:03;;;;;;;7.90;2.28;;;21.50;95.30;;;;;;5012591;28;20068;-55
2022/05/15 11:40:40;;;;;;;10.50;2.47;;;21.60;94.20;;;;;;5012168;28;20022;-55
2022/05/15 11:43:28;;;;;;;7.35;3.03;;;21.60;94.70;;;;;;5012873;28;20438;-54
2022/05/15 11:46:13;;;;;;;6.78;2.38;;;21.50;93.50;;;;;;5011983;28;20499;-57
2022/05/15 11:48:38;;;;;;;8.93;3.20;;;21.50;93.40;;;;;;5013730;28;20491;-56
2022/05/15 11:51:24;;;;;;;14.45;4.80;;;21.50;93.80;;;;;;5003242;28;20033;-56
2022/05/15 11:53:57;;;;;;;17.00;5.90;;;21.50;94.20;;;;;;5012014;28;20045;-54
2022/05/15 11:56:51;;;;;;;10.35;2.35;;;21.60;93.90;;;;;;5018900;28;20429;-57
2022/05/15 11:59:25;;;;;;;5.25;1.85;;;21.80;93.50;;;;;;5035507;28;20026;-54
2022/05/15 12:01:57;;;;;;;5.60;2.25;;;21.80;93.50;;;;;;5035404;28;20471;-56
2022/05/15 12:04:25;;;;;;;9.00;3.08;;;21.90;93.50;;;;;;5035378;28;20044;-56
2022/05/15 12:06:57;;;;;;;8.30;3.40;;;21.80;93.10;;;;;;5035228;28;20080;-56
2022/05/15 12:09:28;;;;;;;14.32;5.75;;;21.90;93.40;;;;;;5035319;28;20028;-56
2022/05/15 12:11:57;;;;;;;11.15;4.53;;;22.10;92.50;;;;;;5034929;28;20109;-57
2022/05/15 12:14:22;;;;;;;15.07;7.68;;;22.10;91.90;;;;;;5034902;28;20105;-53
2022/05/15 12:16:54;;;;;;;11.68;3.70;;;22.20;92.10;;;;;;5025617;28;20109;-56
2022/05/15 12:19:25;;;;;;;10.98;3.25;;;22.30;91.50;;;;;;5024818;28;20084;-57
2022/05/15 12:21:54;;;;;;;6.07;2.40;;;22.30;91.20;;;;;;5014979;28;20044;-55
2022/05/15 12:24:29;;;;;;;10.38;3.30;;;22.30;91.10;;;;;;5029154;28;20033;-53
2022/05/15 12:27:09;;;;;;;7.80;1.95;;;22.40;91.10;;;;;;5033131;28;20025;-55
2022/05/15 12:29:56;;;;;;;9.23;2.67;;;22.50;91.10;;;;;;5018152;28;20026;-57
2022/05/15 12:32:44;;;;;;;9.40;2.45;;;22.70;90.40;;;;;;5020356;28;20026;-57
2022/05/15 12:35:31;;;;;;;8.27;2.67;;;22.70;88.50;;;;;;5002646;28;20100;-57
2022/05/15 12:38:06;;;;;;;6.03;2.05;;;22.70;88.50;;;;;;5015148;28;20083;-58
2022/05/15 12:40:54;;;;;;;5.63;2.28;;;22.80;87.80;;;;;;5016735;28;20045;-57
2022/05/15 12:43:33;;;;;;;8.00;2.30;;;22.80;88.10;;;;;;5015879;28;20022;-57
2022/05/15 12:46:00;;;;;;;9.30;2.88;;;22.90;87.10;;;;;;5028132;28;20026;-57
2022/05/15 12:48:30;;;;;;;9.10;2.35;;;22.90;86.20;;;;;;5015158;28;20084;-57
2022/05/15 12:51:01;;;;;;;9.13;2.35;;;22.90;85.90;;;;;;5015382;28;20371;-55
2022/05/15 12:53:32;;;;;;;6.38;2.50;;;22.90;85.60;;;;;;5018055;28;20516;-57
2022/05/15 12:56:10;;;;;;;6.78;2.38;;;22.90;85.30;;;;;;5026735;28;20076;-57
2022/05/15 12:58:36;;;;;;;6.93;2.20;;;23.00;84.40;;;;;;5015249;28;20048;-55
2022/05/15 13:01:04;;;;;;;5.00;1.73;;;23.10;83.50;;;;;;5014438;28;20036;-57
2022/05/15 13:03:30;;;;;;;4.93;2.03;;;23.00;82.30;;;;;;5019392;28;20029;-55
2022/05/15 13:06:00;;;;;;;6.82;2.30;;;23.00;83.00;;;;;;5022549;28;20042;-53
2022/05/15 13:08:41;;;;;;;7.90;2.10;;;23.10;83.70;;;;;;5006578;28;20079;-53
2022/05/15 13:11:07;;;;;;;6.65;1.95;;;23.10;82.60;;;;;;5024254;28;20033;-55